UR5WGN-5 Weather Reports


Display with metric or nautical units.
time (UTC)temp
F
wind
direction
speed
MPH
gust
MPH
rain 1hr
in
rain 24hr
in
rain mn
in
humidity
%
barometer
mb
20181114181402 44 270 0.0 0.0 0.00 0.22 0.00 82 1017.2
20181114175901 44 292 0.0 0.0 0.00 0.22 0.00 82 1017.2
20181114174400 44 270 0.0 0.0 0.00 0.22 0.00 82 1017.1
20181114172859 44 270 0.0 0.0 0.00 0.22 0.00 82 1017.0
20181114171358 44 270 0.0 0.0 0.04 0.22 0.00 82 1017.1
20181114165857 44 292 0.0 0.0 0.04 0.22 0.00 82 1017.2
20181114164356 44 292 0.0 0.0 0.04 0.22 0.00 82 1017.2
20181114162856 44 292 0.0 2.0 0.04 0.22 0.00 82 1017.2
20181114161355 44 315 0.0 8.0 0.00 0.18 0.00 81 1017.1
20181114155854 45 292 5.0 5.0 0.00 0.18 0.00 81 1017.0
20181114154353 45 247 3.0 8.0 0.00 0.18 0.00 81 1016.9
20181114152852 44 270 0.0 3.0 0.00 0.18 0.00 80 1016.8
20181114151351 45 292 0.0 6.0 0.00 0.18 0.00 80 1016.7
20181114145850 45 247 4.0 6.0 0.02 0.18 0.00 80 1016.7
20181114144350 45 270 0.0 4.0 0.02 0.18 0.00 80 1016.6
20181114142849 44 292 0.0 4.0 0.02 0.18 0.00 80 1016.4
20181114141348 45 270 0.0 7.0 0.02 0.18 0.00 79 1016.3
20181114135847 47 270 0.0 10.0 0.00 0.16 0.00 76 1016.3
20181114134346 48 225 3.0 5.0 0.00 0.16 0.00 75 1016.2
20181114132845 48 270 0.0 2.0 0.00 0.16 0.00 75 1016.1
20181114131344 48 247 0.0 6.0 0.00 0.16 0.00 76 1016.0
20181114125843 49 315 9.0 11.0 0.00 0.16 0.00 76 1015.9
20181114124343 49 270 2.0 7.0 0.00 0.16 0.00 75 1016.1
20181114122842 49 292 0.0 10.0 0.00 0.16 0.00 74 1015.9
20181114121341 49 292 2.0 12.0 0.00 0.16 0.00 76 1015.9
20181114115840 48 270 3.0 10.0 0.00 0.16 0.00 75 1016.0
20181114114339 50 270 9.0 12.0 0.00 0.16 0.00 71 1016.2
20181114112838 50 292 5.0 10.0 0.00 0.16 0.00 72 1016.1
20181114111337 50 270 4.0 5.0 0.00 0.16 0.00 72 1016.2
20181114105837 50 270 0.0 9.0 0.00 0.16 0.00 74 1016.4
20181114104336 49 270 6.0 10.0 0.00 0.16 0.00 74 1016.4
20181114102835 49 292 0.0 11.0 0.00 0.16 0.00 75 1016.4
20181114101334 49 270 3.0 9.0 0.00 0.16 0.00 75 1016.3
20181114095833 49 270 5.0 8.0 0.00 0.16 0.00 76 1016.4
20181114094332 49 270 0.0 6.0 0.00 0.16 0.00 78 1016.4
20181114092831 48 270 0.0 11.0 0.00 0.16 0.00 78 1016.8
20181114091331 48 270 4.0 8.0 0.00 0.16 0.00 78 1016.8
20181114085830 48 270 5.0 5.0 0.00 0.16 0.00 79 1016.7
20181114084329 48 270 4.0 12.0 0.00 0.16 0.00 79 1016.8
20181114082828 48 270 5.0 11.0 0.00 0.16 0.00 79 1016.7
20181114081327 48 270 5.0 12.0 0.00 0.16 0.00 80 1016.9
20181114075826 48 270 0.0 7.0 0.00 0.16 0.00 80 1016.8
20181114074325 48 270 3.0 9.0 0.00 0.16 0.00 81 1016.7
20181114072825 48 315 1.0 13.0 0.00 0.16 0.00 81 1016.4
20181114071324 48 292 1.0 10.0 0.00 0.16 0.00 81 1016.5
20181114065823 48 270 5.0 7.0 0.00 0.16 0.00 81 1016.3
20181114064322 48 270 3.0 7.0 0.00 0.16 0.00 82 1016.4
20181114062821 47 270 0.0 6.0 0.00 0.16 0.00 82 1016.1
20181114061320 47 270 0.0 11.0 0.00 0.16 0.00 82 1015.9
20181114055819 47 270 10.0 10.0 0.00 0.16 0.00 82 1016.0
20181114054319 46 270 3.0 10.0 0.00 0.16 0.00 82 1016.0
20181114052818 46 270 0.0 6.0 0.00 0.16 0.00 82 1015.9
20181114051317 47 270 0.0 6.0 0.00 0.16 0.00 82 1015.9
20181114045816 47 270 0.0 4.0 0.00 0.16 0.00 82 1015.9
20181114044315 47 270 0.0 8.0 0.00 0.16 0.00 82 1015.6
20181114042814 48 270 0.0 7.0 0.00 0.16 0.00 82 1015.7
20181114041313 48 292 0.0 6.0 0.00 0.16 0.00 82 1015.9
20181114035812 48 270 4.0 6.0 0.00 0.16 0.00 83 1015.7
20181114034312 48 270 4.0 4.0 0.00 0.16 0.00 83 1015.6
20181114032811 48 292 0.0 10.0 0.00 0.16 0.00 83 1015.8
20181114031310 48 270 0.0 7.0 0.00 0.16 0.00 83 1015.6
20181114025809 48 270 0.0 15.0 0.06 0.16 0.00 83 1015.7
20181114024308 48 270 0.0 3.0 0.08 0.16 0.00 82 1015.7
20181114022807 48 247 0.0 7.0 0.10 0.16 0.00 83 1015.4
20181114021306 48 315 6.0 10.0 0.12 0.16 0.00 82 1015.4
20181114015806 48 315 4.0 7.0 0.08 0.10 0.00 82 1015.4
20181114014305 48 270 5.0 5.0 0.06 0.08 0.00 82 1015.1
20181114012804 48 247 0.0 6.0 0.04 0.04 0.00 82 1015.1
20181114011303 48 247 1.0 2.0 0.04 0.04 0.00 82 1014.8
20181114005802 48 247 2.0 4.0 0.02 0.02 0.00 82 1014.8
20181114004301 47 270 0.0 0.0 0.02 0.02 0.00 82 1014.8
20181114002800 47 270 0.0 0.0 0.00 0.00 0.00 82 1014.8
20181114001300 47 270 0.0 2.0 0.00 0.00 0.00 82 1014.6
20181113235759 45 270 0.0 2.0 0.00 0.00 0.00 82 1014.6
20181113234258 44 22 0.0 2.0 0.00 0.00 0.00 82 1014.3
20181113232757 44 67 0.0 0.0 0.00 0.00 0.00 82 1014.1
20181113231256 44 67 0.0 0.0 0.00 0.00 0.00 82 1014.0
20181113225755 44 67 0.0 0.0 0.00 0.00 0.00 82 1013.9
20181113224255 44 67 0.0 0.0 0.00 0.00 0.00 82 1014.0
20181113222754 44 67 0.0 0.0 0.00 0.00 0.00 82 1014.2
20181113221253 43 67 0.0 0.0 0.00 0.00 0.00 82 1014.3
20181113215752 43 67 0.0 0.0 0.00 0.00 0.00 82 1014.4
20181113214251 43 67 0.0 0.0 0.00 0.00 0.00 82 1014.4
20181113212750 43 90 0.0 0.0 0.00 0.00 0.00 83 1014.3
20181113211249 43 90 0.0 0.0 0.00 0.00 0.00 83 1014.1
20181113205748 43 90 0.0 0.0 0.00 0.00 0.00 83 1014.2
20181113204248 43 90 0.0 0.0 0.00 0.00 0.00 83 1014.3
20181113202747 43 90 0.0 0.0 0.00 0.00 0.00 83 1014.2
20181113201246 42 90 0.0 0.0 0.00 0.00 0.00 83 1014.2
20181113195745 42 90 0.0 0.0 0.00 0.00 0.00 83 1014.2
20181113193134 42 90 0.0 0.0 0.00 0.00 0.00 83 1014.2
20181113191450 42 67 0.0 2.0 0.00 0.00 0.00 83 1014.2
20181113185949 42 67 0.0 0.0 0.00 0.00 0.00 83 1014.3
20181113184448 42 112 0.0 0.0 0.00 0.00 0.00 83 1014.3
20181113182948 42 135 1.0 1.0 0.00 0.00 0.00 82 1014.3